| time (UTC) | temp C | wind direction | speed KPH | gust KPH | rain 1hr cm | rain 24hr cm | rain mn cm | humidity % | barometer mb |
| 20260904184004 | 32 | 319 | 3.2 | 9.7 | 0.00 | 0.00 | 0.00 | 65 | 1017.5 |
| 20260904183003 | 31 | 319 | 6.4 | 12.9 | 0.00 | 0.00 | 0.00 | 64 | 1017.6 |
| 20260904182003 | 32 | 319 | 4.8 | 12.9 | 0.00 | 0.00 | 0.00 | 63 | 1017.7 |
| 20260904181003 | 32 | 317 | 4.8 | 8.0 | 0.00 | 0.00 | 0.00 | 64 | 1017.7 |
| 20260904180004 | 32 | 317 | 4.8 | 16.1 | 0.00 | 0.00 | 0.00 | 63 | 1017.8 |
| 20260904175003 | 31 | 292 | 4.8 | 12.9 | 0.00 | 0.00 | 0.00 | 60 | 1017.9 |
| 20260904174003 | 31 | 290 | 3.2 | 14.5 | 0.00 | 0.00 | 0.00 | 63 | 1018.0 |
| 20260904173003 | 31 | 290 | 3.2 | 12.9 | 0.00 | 0.00 | 0.00 | 69 | 1018.1 |
| 20260904172003 | 31 | 290 | 9.7 | 14.5 | 0.00 | 0.00 | 0.00 | 68 | 1018.3 |
| 20260904171003 | 31 | 318 | 8.0 | 12.9 | 0.00 | 0.00 | 0.00 | 70 | 1018.3 |
| 20260904170003 | 30 | 321 | 3.2 | 4.8 | 0.00 | 0.00 | 0.00 | 67 | 1018.4 |
| 20260904165004 | 30 | 321 | 3.2 | 4.8 | 0.00 | 0.00 | 0.00 | 65 | 1018.4 |
| 20260904164004 | 30 | 321 | 4.8 | 9.7 | 0.00 | 0.00 | 0.00 | 70 | 1018.5 |
| 20260904163003 | 30 | 321 | 3.2 | 9.7 | 0.00 | 0.00 | 0.00 | 70 | 1018.6 |
| 20260904162004 | 30 | 321 | 3.2 | 8.0 | 0.00 | 0.00 | 0.00 | 70 | 1018.6 |
| 20260904161003 | 30 | 321 | 4.8 | 9.7 | 0.00 | 0.00 | 0.00 | 71 | 1018.7 |
| 20260904160003 | 30 | 321 | 3.2 | 4.8 | 0.00 | 0.00 | 0.00 | 74 | 1018.9 |
| 20260904155003 | 29 | 321 | 1.6 | 4.8 | 0.00 | 0.00 | 0.00 | 73 | 1018.9 |
| 20260904154003 | 29 | 321 | 1.6 | 8.0 | 0.00 | 0.00 | 0.00 | 75 | 1019.1 |
| 20260904153004 | 28 | 320 | 0.0 | 0.0 | 0.00 | 0.00 | 0.00 | 75 | 1019.1 |
| 20260904152003 | 28 | 320 | 0.0 | 0.0 | 0.00 | 0.00 | 0.00 | 78 | 1019.1 |
| 20260904151004 | 28 | 320 | 0.0 | 0.0 | 0.00 | 0.00 | 0.00 | 78 | 1019.0 |
| 20260904150004 | 27 | 320 | 1.6 | 4.8 | 0.00 | 0.00 | 0.00 | 79 | 1019.0 |
| 20260904145003 | 27 | 320 | 3.2 | 4.8 | 0.00 | 0.00 | 0.00 | 78 | 1018.9 |
| 20260904144004 | 26 | 320 | 3.2 | 4.8 | 0.00 | 0.00 | 0.00 | 80 | 1019.0 |
| 20260904143003 | 26 | 320 | 3.2 | 4.8 | 0.00 | 0.00 | 0.00 | 82 | 1019.0 |
| 20260904142004 | 25 | 320 | 0.0 | 0.0 | 0.00 | 0.00 | 0.00 | 84 | 1018.9 |
| 20260904141003 | 25 | 320 | 0.0 | 0.0 | 0.00 | 0.00 | 0.00 | 85 | 1018.8 |
| 20260904140004 | 25 | 320 | 0.0 | 0.0 | 0.00 | 0.00 | 0.00 | 88 | 1019.0 |
| 20260904135003 | 23 | 320 | 0.0 | 0.0 | 0.00 | 0.00 | 0.00 | 90 | 1019.0 |
| 20260904134003 | 23 | 320 | 0.0 | 0.0 | 0.00 | 0.00 | 0.00 | 91 | 1018.9 |
| 20260904112003 | 21 | 320 | 0.0 | 0.0 | 0.00 | 0.00 | 0.00 | 91 | 1018.5 |
| 20260904111004 | 20 | 320 | 0.0 | 0.0 | 0.00 | 0.00 | 0.00 | 91 | 1018.5 |
| 20260904110003 | 20 | 320 | 0.0 | 0.0 | 0.00 | 0.00 | 0.00 | 91 | 1018.3 |
| 20260904105004 | 20 | 320 | 0.0 | 0.0 | 0.00 | 0.00 | 0.00 | 91 | 1018.3 |
| 20260904104003 | 20 | 320 | 0.0 | 0.0 | 0.00 | 0.00 | 0.00 | 91 | 1018.3 |
| 20260904103003 | 20 | 320 | 0.0 | 0.0 | 0.00 | 0.00 | 0.00 | 91 | 1018.3 |
| 20260904102003 | 21 | 320 | 0.0 | 0.0 | 0.00 | 0.00 | 0.00 | 91 | 1018.2 |
| 20260904101003 | 21 | 320 | 0.0 | 0.0 | 0.00 | 0.00 | 0.00 | 91 | 1018.2 |
| 20260904100003 | 21 | 320 | 0.0 | 0.0 | 0.00 | 0.00 | 0.00 | 91 | 1018.0 |
| 20260904095003 | 21 | 320 | 0.0 | 0.0 | 0.00 | 0.00 | 0.00 | 91 | 1018.0 |
| 20260904094003 | 21 | 320 | 0.0 | 0.0 | 0.00 | 0.00 | 0.00 | 91 | 1017.9 |
| 20260904093004 | 21 | 320 | 0.0 | 0.0 | 0.00 | 0.00 | 0.00 | 91 | 1017.8 |
| 20260904081003 | 21 | 320 | 0.0 | 0.0 | 0.00 | 0.00 | 0.00 | 91 | 1017.7 |
| 20260904080003 | 21 | 320 | 0.0 | 0.0 | 0.00 | 0.00 | 0.00 | 91 | 1017.6 |
| 20260904075004 | 21 | 320 | 0.0 | 1.6 | 0.00 | 0.00 | 0.00 | 91 | 1017.7 |
| 20260904074004 | 22 | 320 | 0.0 | 0.0 | 0.00 | 0.00 | 0.00 | 90 | 1017.8 |
| 20260904073003 | 22 | 320 | 0.0 | 0.0 | 0.00 | 0.00 | 0.00 | 90 | 1017.8 |
| 20260904072004 | 22 | 320 | 0.0 | 0.0 | 0.00 | 0.00 | 0.00 | 90 | 1017.6 |
| 20260904061004 | 22 | 320 | 0.0 | 0.0 | 0.00 | 0.00 | 0.00 | 90 | 1018.0 |
| 20260904060004 | 22 | 320 | 0.0 | 0.0 | 0.00 | 0.00 | 0.00 | 90 | 1018.0 |
| 20260904055004 | 22 | 320 | 0.0 | 0.0 | 0.00 | 0.00 | 0.00 | 90 | 1018.1 |
| 20260904054003 | 23 | 320 | 0.0 | 0.0 | 0.00 | 0.00 | 0.00 | 89 | 1018.2 |
| 20260904053004 | 23 | 320 | 0.0 | 0.0 | 0.00 | 0.00 | 0.00 | 89 | 1018.3 |
| 20260904052004 | 23 | 320 | 0.0 | 0.0 | 0.00 | 0.00 | 0.00 | 89 | 1018.4 |
| 20260904051004 | 23 | 320 | 0.0 | 0.0 | 0.00 | 0.00 | 0.00 | 89 | 1018.5 |
| 20260904041004 | 23 | 320 | 0.0 | 0.0 | 0.00 | 0.00 | 0.00 | 89 | 1018.4 |
| 20260904040003 | 23 | 320 | 0.0 | 0.0 | 0.00 | 0.00 | 0.00 | 89 | 1018.4 |
| 20260904035003 | 23 | 320 | 0.0 | 0.0 | 0.00 | 0.00 | 0.00 | 89 | 1018.5 |
| 20260904034003 | 23 | 320 | 0.0 | 0.0 | 0.00 | 0.00 | 0.00 | 89 | 1018.6 |
| 20260904033003 | 23 | 320 | 0.0 | 1.6 | 0.00 | 0.00 | 0.00 | 90 | 1018.6 |
| 20260904032003 | 23 | 320 | 0.0 | 3.2 | 0.00 | 0.00 | 0.00 | 90 | 1018.7 |
| 20260904021003 | 24 | 320 | 0.0 | 0.0 | 0.00 | 0.00 | 0.00 | 89 | 1018.4 |
| 20260904020003 | 24 | 320 | 0.0 | 1.6 | 0.00 | 0.00 | 0.00 | 89 | 1018.3 |
| 20260904015003 | 24 | 320 | 0.0 | 1.6 | 0.00 | 0.00 | 0.00 | 88 | 1018.3 |
| 20260904014004 | 25 | 320 | 0.0 | 9.7 | 0.00 | 0.00 | 0.00 | 88 | 1018.1 |
| 20260904013003 | 25 | 320 | 0.0 | 0.0 | 0.00 | 0.00 | 0.00 | 87 | 1017.9 |
| 20260904012003 | 25 | 320 | 0.0 | 0.0 | 0.00 | 0.00 | 0.00 | 87 | 1017.9 |
| 20260904011003 | 25 | 320 | 0.0 | 0.0 | 0.00 | 0.00 | 0.00 | 86 | 1017.7 |
| 20260903231003 | 32 | 320 | 0.0 | 0.0 | 0.00 | 0.00 | 0.00 | 67 | 1016.3 |
| 20260903230002 | 32 | 320 | 0.0 | 0.0 | 0.00 | 0.00 | 0.00 | 62 | 1016.4 |
| 20260903225002 | 33 | 320 | 0.0 | 0.0 | 0.00 | 0.00 | 0.00 | 61 | 1016.4 |
| 20260903224002 | 33 | 320 | 0.0 | 0.0 | 0.00 | 0.00 | 0.00 | 60 | 1016.4 |
| 20260903223002 | 33 | 324 | 0.0 | 0.0 | 0.00 | 0.00 | 0.00 | 60 | 1016.7 |
| 20260903222003 | 33 | 324 | 0.0 | 3.2 | 0.00 | 0.00 | 0.00 | 61 | 1016.6 |
| 20260903211002 | 33 | 324 | 0.0 | 4.8 | 0.00 | 0.00 | 0.00 | 58 | 1016.8 |
| 20260903210002 | 33 | 324 | 1.6 | 4.8 | 0.00 | 0.00 | 0.00 | 59 | 1016.9 |
| 20260903205002 | 33 | 324 | 3.2 | 8.0 | 0.00 | 0.00 | 0.00 | 57 | 1017.1 |
| 20260903204002 | 32 | 324 | 4.8 | 4.8 | 0.00 | 0.00 | 0.00 | 60 | 1017.1 |
| 20260903203002 | 32 | 324 | 0.0 | 3.2 | 0.00 | 0.00 | 0.00 | 60 | 1017.2 |
| 20260903202003 | 32 | 324 | 1.6 | 4.8 | 0.00 | 0.00 | 0.00 | 60 | 1017.3 |